Wyoming, Canada
Current Conditions -  °F | °C
As of 1:00 AM on Saturday 20 Dec 2014 (Local Time) from CYZR Reporting Station
Overcast Overcast  
Wind Chill: 25°   Ceiling: 2600
Heat Index: 25°   Visibility: 9mi
Dew Point: 21°   Wind: 3mph
Humidity: 86%   Direction: 220°SW
Pressure: 30.27"   Gusts: NA
Location:  42.95°N, 82.12°W
Report Text: CYZR 200600Z AUTO 22003KT 9SM OVC026 M04/M06 A3027 RMK SLP258
Loading
Personal Weather Stations






























Interactive Weather Map New forecast layout! Learn more

10-Day Weather Forecast

Advertisements
Track Severe Weather on mobile